Time;durP1;ratioP1;P1;durP2;ratioP2;P2;SDS_P1;SDS_P2;PMS_P1;PMS_P2;Temp;Humidity;BMP_temperature;BMP_pressure;BME280_temperature;BME280_humidity;BME280_pressure;Samples;Min_cycle;Max_cycle;Signal;HPM_P1;HPM_P2
2022/08/25 00:01:49;;;;;;;14.50;6.40;;;;;;;19.14;100.00;93001.47;5111088;28;20177;-73
2022/08/25 00:04:17;;;;;;;19.45;6.57;;;;;;;19.15;100.00;92995.19;5097334;28;20630;-72
2022/08/25 00:06:46;;;;;;;16.95;6.82;;;;;;;19.06;100.00;92975.97;5111447;28;20043;-72
2022/08/25 00:09:15;;;;;;;14.73;7.13;;;;;;;19.13;100.00;92993.91;5111290;28;20085;-72
2022/08/25 00:11:42;;;;;;;19.30;7.43;;;;;;;19.18;100.00;92988.69;5111616;28;20048;-73
2022/08/25 00:14:12;;;;;;;20.05;7.63;;;;;;;19.28;100.00;92993.06;5104814;28;20074;-72
2022/08/25 00:16:39;;;;;;;14.15;6.82;;;;;;;19.31;100.00;92993.28;5111405;28;20415;-73
2022/08/25 00:19:11;;;;;;;18.77;7.15;;;;;;;19.34;100.00;92990.16;5111388;28;20048;-72
2022/08/25 00:21:39;;;;;;;18.05;6.90;;;;;;;19.32;100.00;92989.66;5090205;28;20048;-72
2022/08/25 00:24:08;;;;;;;16.35;6.88;;;;;;;19.25;100.00;92983.19;5092682;28;20044;-72
2022/08/25 00:26:38;;;;;;;11.20;6.78;;;;;;;19.22;100.00;92974.09;5111111;28;20044;-72
2022/08/25 00:29:05;;;;;;;13.20;6.63;;;;;;;19.15;100.00;92990.00;5110527;28;20080;-72
2022/08/25 00:31:32;;;;;;;13.15;6.40;;;;;;;19.06;100.00;92987.19;5110447;28;20472;-72
2022/08/25 00:34:00;;;;;;;14.88;7.95;;;;;;;19.09;100.00;92973.63;5110277;28;20521;-72
2022/08/25 00:36:28;;;;;;;14.00;5.88;;;;;;;19.20;100.00;92982.16;5110301;28;20036;-72
2022/08/25 00:38:55;;;;;;;13.80;6.70;;;;;;;19.18;100.00;92976.47;5110515;28;20050;-72
2022/08/25 00:41:24;;;;;;;15.88;6.32;;;;;;;19.07;100.00;92973.09;5110407;28;20043;-72
2022/08/25 00:43:55;;;;;;;17.58;6.85;;;;;;;19.09;100.00;92970.25;5110683;28;20047;-72
2022/08/25 00:46:24;;;;;;;15.35;6.15;;;;;;;19.15;100.00;92978.78;5110817;28;20100;-72
2022/08/25 00:48:56;;;;;;;11.63;5.18;;;;;;;19.02;100.00;92985.34;5110931;28;20108;-72
2022/08/25 00:51:30;;;;;;;17.88;6.50;;;;;;;19.16;100.00;92988.94;5110450;28;20154;-72
2022/08/25 00:53:57;;;;;;;13.43;5.85;;;;;;;19.07;100.00;92987.97;5110354;28;20511;-73
2022/08/25 00:56:25;;;;;;;14.23;6.97;;;;;;;19.05;100.00;92993.44;5110975;28;20050;-72
2022/08/25 00:58:53;;;;;;;14.02;6.80;;;;;;;19.01;100.00;92974.16;5110333;28;20459;-72
2022/08/25 01:01:20;;;;;;;14.55;7.20;;;;;;;19.10;100.00;92984.81;5110236;28;20055;-73
2022/08/25 01:03:47;;;;;;;15.00;6.55;;;;;;;19.17;100.00;92987.13;5110471;28;20097;-72
2022/08/25 01:06:13;;;;;;;16.80;6.70;;;;;;;19.16;100.00;92988.19;5110357;28;20048;-72
2022/08/25 01:08:42;;;;;;;15.05;6.75;;;;;;;19.22;100.00;92987.88;5110708;28;20048;-72
2022/08/25 01:11:11;;;;;;;19.92;7.50;;;;;;;19.18;100.00;92983.47;5110660;28;20044;-72
2022/08/25 01:13:43;;;;;;;13.32;6.35;;;;;;;19.18;100.00;92989.47;5108996;28;20130;-72
2022/08/25 01:16:12;;;;;;;13.88;7.65;;;;;;;19.02;100.00;92983.50;5110108;28;20047;-73
2022/08/25 01:18:46;;;;;;;14.57;7.10;;;;;;;18.90;100.00;92980.47;5109737;28;20445;-73
2022/08/25 01:21:15;;;;;;;18.60;8.15;;;;;;;18.81;100.00;92977.63;5109971;28;20097;-72
2022/08/25 01:23:42;;;;;;;19.20;7.72;;;;;;;18.95;100.00;92990.84;5110082;28;20414;-73
2022/08/25 01:26:12;;;;;;;17.05;7.90;;;;;;;18.91;100.00;92987.22;5096137;28;20093;-73
2022/08/25 01:29:19;;;;;;;20.38;8.32;;;;;;;18.88;100.00;92972.91;5110089;28;20043;-73
2022/08/25 01:31:28;;;;;;;14.73;8.73;;;;;;;18.83;100.00;92963.31;5109784;28;20039;-73
2022/08/25 01:33:55;;;;;;;17.77;8.75;;;;;;;18.88;100.00;92972.91;5109811;28;20067;-73
2022/08/25 01:36:24;;;;;;;17.55;9.20;;;;;;;18.88;100.00;92974.75;5109800;28;20049;-73
2022/08/25 01:38:51;;;;;;;24.85;10.20;;;;;;;18.88;100.00;92974.75;5109900;28;20096;-72
2022/08/25 01:41:22;;;;;;;19.23;10.57;;;;;;;18.81;100.00;92968.00;5109592;28;20495;-72
2022/08/25 01:43:49;;;;;;;20.83;10.52;;;;;;;18.77;100.00;92961.78;5109823;28;20058;-73
2022/08/25 01:46:16;;;;;;;18.95;10.77;;;;;;;18.81;100.00;92977.63;5109794;28;20120;-73
2022/08/25 01:48:42;;;;;;;17.70;10.05;;;;;;;18.81;100.00;92978.41;5109916;28;20410;-73
2022/08/25 01:51:09;;;;;;;17.15;9.30;;;;;;;18.94;100.00;92981.50;5109280;28;20498;-73
2022/08/25 01:53:37;;;;;;;18.20;9.02;;;;;;;19.03;100.00;92979.09;5109440;28;20527;-72
2022/08/25 01:56:10;;;;;;;19.85;9.50;;;;;;;19.09;100.00;92986.66;5109694;28;20048;-73
2022/08/25 01:58:39;;;;;;;14.68;8.80;;;;;;;19.14;100.00;92987.66;5109257;28;20047;-73
2022/08/25 02:01:10;;;;;;;17.98;9.45;;;;;;;19.13;100.00;92992.09;5109596;28;20051;-74
2022/08/25 02:03:38;;;;;;;25.38;9.55;;;;;;;19.05;100.00;92995.25;5109195;28;20093;-72
2022/08/25 02:06:06;;;;;;;15.63;9.07;;;;;;;19.08;100.00;92997.34;5109287;28;20069;-73
2022/08/25 02:08:33;;;;;;;16.02;8.23;;;;;;;19.03;100.00;92981.69;5109696;28;20453;-73
2022/08/25 02:11:01;;;;;;;21.80;9.60;;;;;;;18.97;100.00;92986.13;5109472;28;20093;-73
2022/08/25 02:13:28;;;;;;;16.83;8.73;;;;;;;18.72;100.00;92956.59;5109662;28;20046;-73
2022/08/25 02:15:57;;;;;;;17.08;8.57;;;;;;;18.71;100.00;92955.03;5109668;28;20047;-73
2022/08/25 02:18:24;;;;;;;17.70;9.07;;;;;;;18.85;100.00;92981.25;5109499;28;20112;-73
2022/08/25 02:20:51;;;;;;;18.98;9.27;;;;;;;18.82;100.00;92982.56;5109306;28;20055;-73
2022/08/25 02:23:18;;;;;;;18.52;9.57;;;;;;;18.82;100.00;92982.56;5108860;28;20040;-73
2022/08/25 02:25:46;;;;;;;21.70;8.90;;;;;;;18.82;100.00;92977.38;5113167;28;20040;-73
2022/08/25 02:28:14;;;;;;;17.13;7.40;;;;;;;18.87;100.00;92980.97;5113553;28;20050;-73
2022/08/25 02:30:42;;;;;;;14.88;9.18;;;;;;;18.90;100.00;92989.06;5113719;28;20046;-74
2022/08/25 02:33:10;;;;;;;15.38;7.15;;;;;;;18.93;100.00;92985.91;5113289;28;20100;-73
2022/08/25 02:35:37;;;;;;;16.38;7.45;;;;;;;18.93;100.00;92987.75;5113032;28;20059;-74
2022/08/25 02:38:04;;;;;;;19.42;8.88;;;;;;;19.04;100.00;92993.69;5113217;28;20044;-74
2022/08/25 02:40:31;;;;;;;16.25;8.27;;;;;;;19.07;100.00;92993.19;5113435;28;20055;-74
2022/08/25 02:42:58;;;;;;;18.98;8.48;;;;;;;19.01;100.00;92989.78;5113039;28;20060;-74
2022/08/25 02:45:26;;;;;;;15.05;7.25;;;;;;;18.93;100.00;92988.50;5113312;28;20438;-74
2022/08/25 02:47:53;;;;;;;23.70;8.25;;;;;;;18.78;100.00;92989.34;5113180;28;20051;-74
2022/08/25 02:50:20;;;;;;;15.63;7.90;;;;;;;18.67;100.00;92988.63;5112720;28;20047;-74
2022/08/25 02:52:49;;;;;;;16.63;8.10;;;;;;;18.63;100.00;92992.00;5112860;28;20499;-74
2022/08/25 02:55:17;;;;;;;15.60;7.97;;;;;;;18.45;100.00;92975.13;5112765;28;20369;-74
2022/08/25 02:57:43;;;;;;;17.50;8.93;;;;;;;18.42;100.00;92989.44;5112666;28;20491;-73
2022/08/25 03:00:14;;;;;;;19.45;8.38;;;;;;;18.42;100.00;92979.03;5113087;28;20441;-74
2022/08/25 03:02:43;;;;;;;14.75;8.07;;;;;;;18.51;100.00;92987.09;5112481;28;20047;-73
2022/08/25 03:05:12;;;;;;;15.98;7.85;;;;;;;18.50;100.00;92988.91;5112738;28;20047;-74
2022/08/25 03:07:40;;;;;;;18.33;8.43;;;;;;;18.43;100.00;92983.97;5112643;28;20048;-74
2022/08/25 03:10:09;;;;;;;15.48;7.72;;;;;;;18.43;100.00;92994.38;5112670;28;20524;-74
2022/08/25 03:12:36;;;;;;;17.50;8.23;;;;;;;18.38;100.00;92996.22;5113034;28;20098;-74
2022/08/25 03:15:03;;;;;;;11.77;7.13;;;;;;;18.40;100.00;92988.94;5112767;28;20036;-74
2022/08/25 03:17:30;;;;;;;24.45;9.32;;;;;;;18.46;100.00;92995.69;5112512;28;20490;-74
2022/08/25 03:19:58;;;;;;;15.43;7.82;;;;;;;18.54;100.00;92994.38;5112465;28;20043;-74
2022/08/25 03:22:25;;;;;;;15.40;7.57;;;;;;;18.67;100.00;93004.22;5112302;28;20048;-74
2022/08/25 03:26:52;;;;;;;16.75;8.68;;;;;;;18.74;100.00;93009.13;5111966;28;20048;-74
2022/08/25 03:27:38;;;;;;;14.52;7.32;;;;;;;18.83;100.00;93014.56;5111896;28;20503;-75
2022/08/25 03:30:06;;;;;;;16.08;7.72;;;;;;;18.81;100.00;92994.03;5112130;28;20089;-74
2022/08/25 03:32:33;;;;;;;12.88;9.20;;;;;;;18.91;100.00;93010.63;5112330;28;20047;-74
2022/08/25 03:35:01;;;;;;;16.27;9.20;;;;;;;18.93;100.00;93005.97;5111972;28;20054;-74
2022/08/25 03:37:28;;;;;;;18.23;8.85;;;;;;;18.99;100.00;92997.09;5111424;28;20043;-74
2022/08/25 03:39:55;;;;;;;13.45;8.48;;;;;;;19.00;100.00;93003.06;5112331;28;20043;-74
2022/08/25 03:42:22;;;;;;;18.52;8.82;;;;;;;19.00;100.00;93003.84;5111813;28;20048;-74
2022/08/25 03:44:49;;;;;;;18.90;9.40;;;;;;;19.02;100.00;93006.94;5112332;28;20481;-75
2022/08/25 03:47:16;;;;;;;14.68;8.07;;;;;;;19.00;100.00;93003.84;5111964;28;20055;-75
2022/08/25 03:49:43;;;;;;;17.45;8.70;;;;;;;18.98;100.00;92997.34;5112177;28;20097;-75
2022/08/25 03:52:11;;;;;;;17.20;8.48;;;;;;;18.96;100.00;93001.00;5111605;28;20132;-73
2022/08/25 03:54:38;;;;;;;19.02;8.45;;;;;;;18.95;100.00;92999.44;5111368;28;20081;-74
2022/08/25 03:57:05;;;;;;;17.10;9.40;;;;;;;18.96;100.00;93006.19;5111790;28;20059;-73
2022/08/25 03:59:33;;;;;;;17.45;8.63;;;;;;;18.93;100.00;92998.91;5111762;28;20090;-74
2022/08/25 04:02:00;;;;;;;16.48;9.00;;;;;;;18.93;100.00;92998.91;5111710;28;20051;-74
2022/08/25 04:04:27;;;;;;;15.10;8.60;;;;;;;18.92;100.00;93001.78;5111254;28;20048;-74
2022/08/25 04:06:54;;;;;;;12.75;8.60;;;;;;;18.90;100.00;93007.28;5111480;28;20043;-73
2022/08/25 04:09:22;;;;;;;17.50;8.20;;;;;;;18.91;100.00;93001.00;5111289;28;20047;-73
2022/08/25 04:11:49;;;;;;;16.52;8.13;;;;;;;18.90;100.00;93004.66;5111405;28;20044;-75
2022/08/25 04:14:16;;;;;;;16.73;9.55;;;;;;;18.93;100.00;93005.97;5111474;28;20051;-74
2022/08/25 04:16:43;;;;;;;14.82;8.27;;;;;;;18.88;100.00;92993.72;5111430;28;20092;-74
2022/08/25 04:19:11;;;;;;;20.92;9.05;;;;;;;18.96;100.00;93008.81;5111259;28;20506;-75
2022/08/25 04:21:39;;;;;;;21.77;9.20;;;;;;;18.98;100.00;93015.56;5111209;28;20152;-74
2022/08/25 04:24:07;;;;;;;19.08;9.63;;;;;;;18.86;100.00;92989.84;5110974;28;20047;-74
2022/08/25 04:26:38;;;;;;;19.05;9.13;;;;;;;18.97;100.00;93001.75;5111293;28;20067;-73
2022/08/25 04:29:08;;;;;;;21.60;9.90;;;;;;;18.97;100.00;92999.16;5111000;28;20040;-73
2022/08/25 04:31:34;;;;;;;18.35;9.98;;;;;;;18.98;100.00;92994.75;5096515;28;20044;-74
2022/08/25 04:34:02;;;;;;;17.63;9.98;;;;;;;19.01;100.00;93000.19;5110914;28;20047;-74
2022/08/25 04:36:30;;;;;;;14.63;9.20;;;;;;;19.04;100.00;92991.88;5111009;28;20101;-75
2022/08/25 04:38:57;;;;;;;18.17;9.75;;;;;;;19.08;100.00;92995.50;5110914;28;20388;-75
2022/08/25 04:41:24;;;;;;;16.10;8.10;;;;;;;19.08;100.00;92992.88;5111091;28;20057;-76
2022/08/25 04:43:53;;;;;;;15.30;8.75;;;;;;;19.10;100.00;92992.63;5110875;28;20051;-73
2022/08/25 04:46:22;;;;;;;15.00;7.80;;;;;;;19.15;100.00;92984.00;5110566;28;20092;-73
2022/08/25 04:48:50;;;;;;;26.50;9.60;;;;;;;19.21;100.00;92990.75;5110668;28;20486;-74
2022/08/25 04:51:19;;;;;;;18.98;9.75;;;;;;;19.26;100.00;92992.56;5110542;28;20094;-73
2022/08/25 04:53:46;;;;;;;16.10;9.07;;;;;;;19.31;100.00;93001.09;5110782;28;20153;-74
2022/08/25 04:56:16;;;;;;;17.70;9.38;;;;;;;19.35;100.00;93001.38;5110688;28;20093;-73
2022/08/25 04:58:44;;;;;;;16.15;9.20;;;;;;;19.36;100.00;92993.25;5110782;28;20047;-73
2022/08/25 05:01:14;;;;;;;17.17;8.90;;;;;;;19.46;100.00;92997.66;5110597;28;20117;-73
2022/08/25 05:03:41;;;;;;;15.73;9.27;;;;;;;19.54;100.00;92990.31;5110501;28;20437;-73
2022/08/25 05:06:08;;;;;;;27.95;11.00;;;;;;;19.58;100.00;92983.50;5110584;28;20043;-73
2022/08/25 05:08:36;;;;;;;17.95;9.43;;;;;;;19.74;100.00;92989.38;5110465;28;20048;-73
2022/08/25 05:11:05;;;;;;;21.45;9.82;;;;;;;19.81;100.00;93000.25;5110370;28;20048;-73
2022/08/25 05:13:33;;;;;;;17.08;8.02;;;;;;;19.88;100.00;93005.97;5110503;28;20441;-72
2022/08/25 05:16:00;;;;;;;17.67;8.82;;;;;;;19.86;100.00;92991.66;5110099;28;20058;-72
2022/08/25 05:18:31;;;;;;;16.60;8.20;;;;;;;19.94;100.00;93005.91;5110039;28;20490;-73
2022/08/25 05:21:02;;;;;;;12.25;7.30;;;;;;;20.01;100.00;93004.56;5110253;28;20043;-73
2022/08/25 05:23:29;;;;;;;14.40;7.43;;;;;;;20.05;100.00;93009.25;5110050;28;20398;-73
2022/08/25 05:26:01;;;;;;;14.45;7.60;;;;;;;20.09;100.00;93002.44;5110099;28;20101;-73
2022/08/25 05:28:28;;;;;;;15.98;7.60;;;;;;;20.12;100.00;93004.47;5110173;28;20047;-73
2022/08/25 05:30:58;;;;;;;13.73;7.93;;;;;;;20.09;100.00;93003.19;5109915;28;20090;-73
2022/08/25 05:33:25;;;;;;;12.63;7.68;;;;;;;19.97;100.00;92997.56;5110058;28;20104;-73
2022/08/25 05:35:53;;;;;;;12.35;6.57;;;;;;;20.06;100.00;93001.16;5109677;28;20052;-73
2022/08/25 05:38:20;;;;;;;20.75;7.38;;;;;;;19.84;100.00;92997.13;5109928;28;20047;-73
2022/08/25 05:40:46;;;;;;;14.88;7.82;;;;;;;19.87;100.00;93003.63;5109958;28;20055;-73
2022/08/25 05:43:14;;;;;;;19.33;8.15;;;;;;;19.81;100.00;93005.47;5109906;28;20105;-73
2022/08/25 05:45:41;;;;;;;18.65;7.85;;;;;;;19.73;100.00;93001.63;5109806;28;20047;-73
2022/08/25 05:48:08;;;;;;;18.80;8.43;;;;;;;19.75;100.00;92998.75;5109846;28;20097;-73
2022/08/25 05:50:35;;;;;;;15.43;7.60;;;;;;;19.64;100.00;92992.84;5109572;28;20083;-73
2022/08/25 05:53:03;;;;;;;21.60;8.45;;;;;;;19.61;100.00;92991.56;5109402;28;20064;-73
2022/08/25 05:55:30;;;;;;;18.83;7.82;;;;;;;19.52;100.00;92990.56;5109790;28;20047;-73
2022/08/25 05:57:58;;;;;;;22.65;9.90;;;;;;;19.63;100.00;92996.50;5109644;28;20415;-72
2022/08/25 06:00:24;;;;;;;15.45;8.35;;;;;;;19.72;100.00;92994.09;5109715;28;20101;-73
2022/08/25 06:02:50;;;;;;;18.92;8.52;;;;;;;19.90;100.00;93003.84;5109629;28;20044;-73
2022/08/25 06:05:20;;;;;;;14.57;8.45;;;;;;;20.05;100.00;92994.38;5109442;28;20058;-73
2022/08/25 06:07:48;;;;;;;16.63;8.85;;;;;;;20.12;100.00;93004.47;5109485;28;20052;-73
2022/08/25 06:10:18;;;;;;;17.33;8.18;;;;;;;20.14;100.00;92995.31;5109454;28;20051;-73
2022/08/25 06:12:46;;;;;;;13.90;7.90;;;;;;;20.22;100.00;92996.56;5109589;28;20062;-73
2022/08/25 06:15:15;;;;;;;14.25;7.75;;;;;;;20.18;100.00;92985.13;5109595;28;20108;-74
2022/08/25 06:17:42;;;;;;;19.08;8.15;;;;;;;20.25;100.00;92990.03;5109262;28;20518;-74
2022/08/25 06:20:12;;;;;;;17.88;8.13;;;;;;;20.31;100.00;92991.53;5109483;28;20039;-74
2022/08/25 06:22:39;;;;;;;16.17;8.57;;;;;;;20.24;100.00;92997.09;5109927;28;20472;-73
2022/08/25 06:25:08;;;;;;;13.32;7.72;;;;;;;20.26;100.00;92978.53;5109821;28;20048;-74
2022/08/25 06:27:37;;;;;;;15.98;8.50;;;;;;;20.31;100.00;92988.16;5109546;28;20051;-73
2022/08/25 06:30:05;;;;;;;18.90;8.00;;;;;;;20.41;100.00;92990.66;5109102;28;20080;-73
2022/08/25 06:32:32;;;;;;;15.45;7.80;;;;;;;20.37;100.00;92980.00;5109440;28;20063;-73
2022/08/25 06:34:59;;;;;;;20.85;8.85;;;;;;;20.62;100.00;92985.22;5109274;28;20051;-73
2022/08/25 06:37:26;;;;;;;15.55;7.72;;;;;;;20.69;100.00;92978.63;5109116;28;20048;-73
2022/08/25 06:39:52;;;;;;;16.38;8.52;;;;;;;20.74;100.00;92974.41;5109158;28;20526;-73
2022/08/25 06:42:19;;;;;;;15.15;8.15;;;;;;;20.95;100.00;92983.56;5108784;28;20131;-73
2022/08/25 06:44:47;;;;;;;19.40;9.27;;;;;;;21.16;100.00;92974.69;5109049;28;20052;-73
2022/08/25 06:47:15;;;;;;;17.83;8.20;;;;;;;21.36;100.00;92971.81;5109505;28;20047;-73
2022/08/25 06:49:41;;;;;;;15.50;8.27;;;;;;;21.63;100.00;92991.28;5109333;28;20334;-73
2022/08/25 06:52:08;;;;;;;15.60;7.50;;;;;;;21.82;100.00;92997.56;5109363;28;20446;-73
2022/08/25 06:54:35;;;;;;;15.68;7.97;;;;;;;22.18;100.00;92994.41;5108969;28;20585;-73
2022/08/25 06:57:02;;;;;;;16.20;7.80;;;;;;;22.33;100.00;92990.75;5088325;28;20040;-73
2022/08/25 06:59:29;;;;;;;16.48;7.45;;;;;;;22.35;100.00;93000.94;5107444;28;20043;-73
2022/08/25 07:01:58;;;;;;;14.05;7.50;;;;;;;22.45;100.00;93000.72;5109181;28;20539;-73
2022/08/25 07:04:25;;;;;;;16.40;7.25;;;;;;;22.48;100.00;92983.66;5108442;28;20547;-73
2022/08/25 07:06:52;;;;;;;14.68;7.25;;;;;;;22.80;100.00;93001.19;5108914;28;20112;-73
2022/08/25 07:09:19;;;;;;;17.77;7.65;;;;;;;23.02;100.00;93002.34;5108536;28;20044;-73
2022/08/25 07:11:46;;;;;;;14.38;6.57;;;;;;;22.73;100.00;93006.00;5110611;28;20047;-73
2022/08/25 07:14:16;;;;;;;14.90;7.85;;;;;;;22.42;100.00;92991.63;5112128;28;20043;-73
2022/08/25 07:16:43;;;;;;;18.80;7.15;;;;;;;22.25;100.00;92992.19;5111900;28;20130;-73
2022/08/25 07:19:12;;;;;;;13.25;7.25;;;;;;;22.40;100.00;92993.75;5112355;28;20051;-73
2022/08/25 07:21:44;;;;;;;14.50;7.45;;;;;;;22.28;100.00;92972.50;5111852;28;20047;-73
2022/08/25 07:24:13;;;;;;;16.05;7.90;;;;;;;22.12;100.00;92998.16;5112172;28;20150;-73
2022/08/25 07:26:42;;;;;;;14.38;7.38;;;;;;;21.73;100.00;92977.31;5112096;28;20491;-73
2022/08/25 07:29:12;;;;;;;18.50;8.00;;;;;;;22.03;100.00;93001.44;5112051;28;20054;-73
2022/08/25 07:31:39;;;;;;;15.85;6.82;;;;;;;21.91;100.00;93002.94;5112176;28;20453;-74
2022/08/25 07:36:52;;;;;;;15.95;7.82;;;;;;;22.16;100.00;92996.50;5112160;28;20514;-73
2022/08/25 07:39:19;;;;;;;12.55;6.05;;;;;;;22.31;100.00;93005.19;5111705;28;20051;-73
2022/08/25 07:41:45;;;;;;;17.98;7.07;;;;;;;22.35;100.00;92998.31;5111939;28;20046;-72
2022/08/25 07:44:13;;;;;;;12.60;6.90;;;;;;;22.48;100.00;92992.31;5111967;28;20039;-72
2022/08/25 07:46:40;;;;;;;16.60;6.30;;;;;;;22.43;100.00;93005.47;5111673;28;20040;-73
2022/08/25 07:49:07;;;;;;;38.08;7.75;;;;;;;22.50;100.00;93000.63;5111861;28;20108;-73
2022/08/25 07:51:34;;;;;;;13.05;5.63;;;;;;;22.86;100.00;93009.69;5111515;28;20051;-73
2022/08/25 07:54:03;;;;;;;14.55;5.88;;;;;;;22.99;100.00;93010.00;5111611;28;20054;-74
2022/08/25 07:56:29;;;;;;;11.65;6.03;;;;;;;22.97;100.00;93010.28;5097950;28;20075;-73
2022/08/25 07:58:56;;;;;;;16.63;5.32;;;;;;;23.27;100.00;93002.09;5111502;28;20108;-73
2022/08/25 08:01:25;;;;;;;17.33;5.65;;;;;;;22.85;100.00;92981.97;5111798;28;20094;-74
2022/08/25 08:03:52;;;;;;;14.27;5.80;;;;;;;22.80;100.00;92995.16;5111422;28;20087;-73
2022/08/25 08:06:21;;;;;;;16.27;5.95;;;;;;;23.18;100.00;92984.44;5111437;28;20048;-73
2022/08/25 08:08:50;;;;;;;15.02;5.35;;;;;;;23.20;100.00;92981.53;5111608;28;20039;-74
2022/08/25 08:11:22;;;;;;;17.13;7.55;;;;;;;23.10;100.00;92985.16;5111521;28;20047;-73
2022/08/25 08:13:50;;;;;;;20.75;6.55;;;;;;;22.82;100.00;92982.56;5111762;28;20043;-73
2022/08/25 08:16:18;;;;;;;14.70;5.40;;;;;;;22.78;100.00;92971.13;5111588;28;20120;-74
2022/08/25 08:18:46;;;;;;;13.73;4.93;;;;;;;22.62;100.00;92971.41;5111302;28;20058;-73
2022/08/25 08:21:15;;;;;;;19.02;5.70;;;;;;;22.43;100.00;92969.63;5111180;28;20552;-74
2022/08/25 08:23:42;;;;;;;13.90;4.85;;;;;;;22.06;100.00;92954.81;5097016;28;20043;-74
2022/08/25 08:26:09;;;;;;;19.45;5.13;;;;;;;22.63;100.00;92959.09;5110801;28;20054;-74
2022/08/25 08:28:37;;;;;;;18.02;5.40;;;;;;;22.58;100.00;92959.94;5106447;28;20181;-73
2022/08/25 08:31:05;;;;;;;15.90;5.57;;;;;;;22.31;100.00;92971.16;5097281;28;20105;-74
2022/08/25 08:33:33;;;;;;;19.67;5.50;;;;;;;22.27;100.00;92955.28;5091378;28;20079;-73
2022/08/25 08:36:02;;;;;;;21.83;5.40;;;;;;;22.23;100.00;92957.69;5097696;28;20052;-74
2022/08/25 08:38:29;;;;;;;23.08;6.45;;;;;;;22.63;100.00;92951.25;5092862;28;20047;-73
2022/08/25 08:44:00;;;;;;;19.67;6.00;;;;;;;22.54;100.00;92956.38;5090179;28;20063;-73
2022/08/25 08:46:36;;;;;;;21.75;5.70;;;;;;;22.46;100.00;92960.44;5089946;28;20055;-73
2022/08/25 08:49:12;;;;;;;23.85;7.10;;;;;;;22.68;100.00;92965.00;5090369;28;20381;-73
2022/08/25 08:51:48;;;;;;;16.95;5.63;;;;;;;22.47;100.00;92954.13;5091071;28;20052;-74
2022/08/25 08:54:23;;;;;;;19.58;5.85;;;;;;;23.02;100.00;92963.03;5090348;28;20457;-73
2022/08/25 08:56:57;;;;;;;18.75;6.07;;;;;;;23.16;100.00;92970.09;5095624;28;20044;-74
2022/08/25 08:59:31;;;;;;;16.83;5.95;;;;;;;23.41;100.00;92973.28;5111024;28;20559;-74
2022/08/25 09:01:59;;;;;;;17.52;5.32;;;;;;;23.61;100.00;92979.91;5110651;28;20055;-72
2022/08/25 09:04:33;;;;;;;14.13;4.95;;;;;;;23.37;100.00;92983.56;5110554;28;20509;-72
2022/08/25 09:07:01;;;;;;;18.27;5.15;;;;;;;23.32;100.00;92960.06;5109976;28;20134;-72
2022/08/25 09:09:31;;;;;;;24.02;5.68;;;;;;;23.79;100.00;92982.66;5106874;28;20039;-75
2022/08/25 09:12:05;;;;;;;17.30;5.28;;;;;;;23.58;97.36;92978.66;5100104;28;20408;-74
2022/08/25 09:15:02;;;;;;;17.67;5.20;;;;;;;23.88;99.65;92973.75;5106273;28;20047;-72
2022/08/25 09:17:42;;;;;;;12.25;5.07;;;;;;;23.63;98.00;92956.78;5101863;28;20044;-74
2022/08/25 09:20:37;;;;;;;20.17;6.13;;;;;;;23.62;98.81;92973.59;5110314;28;20048;-72
2022/08/25 09:23:15;;;;;;;14.18;5.13;;;;;;;23.62;99.43;92963.84;5109956;28;20046;-74
2022/08/25 09:25:50;;;;;;;13.80;5.15;;;;;;;23.54;99.19;92966.41;5110061;28;20051;-73
2022/08/25 09:28:20;;;;;;;13.82;5.07;;;;;;;23.49;96.27;92969.94;5102547;28;20055;-74
2022/08/25 09:30:53;;;;;;;23.98;6.30;;;;;;;23.68;100.00;92953.25;5109872;28;20040;-73
2022/08/25 09:33:22;;;;;;;28.55;5.82;;;;;;;23.52;98.20;92952.84;5109008;28;20048;-74
2022/08/25 09:35:51;;;;;;;13.52;4.75;;;;;;;23.87;96.86;92947.81;5109849;28;20044;-74
2022/08/25 09:38:19;;;;;;;22.80;5.03;;;;;;;23.88;93.81;92949.38;5109619;28;20498;-74
2022/08/25 09:40:48;;;;;;;15.02;5.10;;;;;;;24.61;96.52;92955.44;5110159;28;20130;-73
2022/08/25 09:43:21;;;;;;;12.27;4.65;;;;;;;25.05;91.21;92953.72;5110028;28;20147;-73
2022/08/25 09:45:58;;;;;;;14.70;4.10;;;;;;;24.60;85.20;92949.44;5109538;28;20047;-73
2022/08/25 09:48:27;;;;;;;12.65;4.60;;;;;;;24.73;84.04;92955.66;5109923;28;20055;-73
2022/08/25 09:50:58;;;;;;;12.30;3.53;;;;;;;24.65;82.86;92948.50;5109365;28;20127;-73
2022/08/25 09:53:28;;;;;;;17.20;3.67;;;;;;;24.58;85.42;92954.22;5110017;28;20117;-73
2022/08/25 09:56:00;;;;;;;17.15;4.70;;;;;;;24.58;84.71;92945.56;5109608;28;20055;-74
2022/08/25 09:58:27;;;;;;;21.20;5.05;;;;;;;24.74;81.54;92951.16;5109983;28;20044;-74
2022/08/25 10:01:15;;;;;;;18.20;4.15;;;;;;;24.46;83.48;92939.03;5109649;28;20123;-73
2022/08/25 10:04:00;;;;;;;12.90;4.20;;;;;;;24.79;81.09;92951.03;5107727;28;20053;-74
2022/08/25 10:06:27;;;;;;;;;;;;;;;24.95;82.97;92944.28;5108007;28;20495;-73
2022/08/25 10:08:59;;;;;;;14.55;5.15;;;;;;;25.08;80.80;92950.50;5109677;28;20429;-73
2022/08/25 10:11:34;;;;;;;14.95;3.92;;;;;;;24.91;81.12;92955.72;5109354;28;20054;-72
2022/08/25 10:14:04;;;;;;;16.40;3.85;;;;;;;24.62;82.13;92952.50;5107082;28;20159;-73
2022/08/25 10:16:39;;;;;;;14.63;4.10;;;;;;;24.44;81.86;92958.78;5088579;28;20105;-72
2022/08/25 10:19:13;;;;;;;16.83;4.30;;;;;;;24.31;83.84;92955.19;5089133;28;20102;-73
2022/08/25 10:22:06;;;;;;;19.00;4.03;;;;;;;24.36;86.61;92952.44;5089504;28;20071;-72
2022/08/25 10:24:33;;;;;;;12.70;4.80;;;;;;;24.49;85.55;92959.41;5089943;28;20082;-72
2022/08/25 10:27:14;;;;;;;14.15;4.85;;;;;;;24.25;84.43;92967.69;5089180;28;20109;-73
2022/08/25 10:30:01;;;;;;;16.95;5.00;;;;;;;24.47;84.29;92947.66;5089988;28;20047;-72
2022/08/25 10:32:54;;;;;;;15.20;3.80;;;;;;;24.63;83.41;92951.44;5088581;28;20039;-72
2022/08/25 10:35:31;;;;;;;9.73;3.83;;;;;;;24.95;82.10;92959.28;5104277;28;20043;-73
2022/08/25 10:38:14;;;;;;;15.25;4.13;;;;;;;25.19;80.36;92953.59;5108520;28;20453;-73
2022/08/25 10:41:00;;;;;;;14.45;3.75;;;;;;;24.80;78.80;92945.47;5106163;28;20116;-73
2022/08/25 10:43:36;;;;;;;12.98;4.20;;;;;;;24.84;78.93;92952.78;5108279;28;20066;-73
2022/08/25 10:46:12;;;;;;;12.40;3.85;;;;;;;24.74;80.27;92948.53;5099671;28;20055;-72
2022/08/25 10:49:01;;;;;;;13.73;2.80;;;;;;;25.29;80.03;92938.59;5114338;28;20051;-74
2022/08/25 10:51:54;;;;;;;12.30;3.78;;;;;;;25.03;78.77;92945.38;5113973;28;20055;-73
2022/08/25 10:54:35;;;;;;;18.45;3.33;;;;;;;25.09;78.81;92946.78;5113075;28;20039;-72
2022/08/25 10:57:09;;;;;;;13.93;3.25;;;;;;;25.40;77.77;92944.34;5113093;28;20167;-72
2022/08/25 10:59:50;;;;;;;19.67;4.03;;;;;;;25.78;76.80;92941.06;5112932;28;20044;-72
2022/08/25 11:02:59;;;;;;;15.10;3.25;;;;;;;26.12;73.15;92950.00;5112754;28;20814;-73
2022/08/25 11:05:32;;;;;;;14.63;2.58;;;;;;;26.11;71.10;92937.91;5084115;28;20056;-73
2022/08/25 11:08:08;;;;;;;13.07;3.10;;;;;;;26.06;72.95;92924.91;5109011;28;20044;-73
2022/08/25 11:10:42;;;;;;;16.48;3.15;;;;;;;26.13;70.26;92925.22;5112335;28;20054;-74
2022/08/25 11:13:16;;;;;;;13.25;2.35;;;;;;;25.69;69.54;92932.44;5112768;28;20047;-75
2022/08/25 11:15:51;;;;;;;14.13;2.95;;;;;;;25.86;70.99;92927.13;5112607;28;20089;-73
2022/08/25 11:18:19;;;;;;;13.10;3.38;;;;;;;26.04;70.49;92913.94;5112134;28;20051;-74
2022/08/25 11:21:01;;;;;;;17.00;4.30;;;;;;;26.45;69.37;92900.47;5112428;28;20131;-75
2022/08/25 11:23:35;;;;;;;8.52;2.42;;;;;;;25.92;68.27;92913.81;5112490;28;20047;-75
2022/08/25 11:26:07;;;;;;;10.98;3.22;;;;;;;25.58;71.59;92905.66;5112305;28;20092;-75
2022/08/25 11:28:43;;;;;;;17.95;3.75;;;;;;;25.55;72.65;92906.31;5112129;28;20404;-75
2022/08/25 11:31:10;;;;;;;;;;;;;;;26.01;71.06;92889.03;5112966;28;20048;-75
2022/08/25 11:33:38;;;;;;;7.03;2.67;;;;;;;26.17;73.23;92890.34;5111887;28;19920;-74
2022/08/25 11:36:17;;;;;;;9.57;3.17;;;;;;;26.01;71.80;92896.91;5112064;28;20048;-76
2022/08/25 11:38:55;;;;;;;10.45;3.42;;;;;;;25.87;71.45;92898.97;5111037;28;20496;-75